sensor_id;sensor_type;location;lat;lon;timestamp;P1;durP1;ratioP1;P2;durP2;ratioP2
4839;SDS011;2434;48.486;7.964;2023-12-22T00:01:07;5.23;;;1.73;;
4839;SDS011;2434;48.486;7.964;2023-12-22T00:03:36;6.63;;;1.70;;
4839;SDS011;2434;48.486;7.964;2023-12-22T00:06:04;6.00;;;1.30;;
4839;SDS011;2434;48.486;7.964;2023-12-22T00:08:33;7.00;;;1.37;;
4839;SDS011;2434;48.486;7.964;2023-12-22T00:11:01;7.43;;;2.13;;
4839;SDS011;2434;48.486;7.964;2023-12-22T00:13:29;7.57;;;1.90;;
4839;SDS011;2434;48.486;7.964;2023-12-22T00:16:00;12.60;;;1.73;;
4839;SDS011;2434;48.486;7.964;2023-12-22T00:18:29;8.50;;;1.60;;
4839;SDS011;2434;48.486;7.964;2023-12-22T00:20:57;14.63;;;2.33;;
4839;SDS011;2434;48.486;7.964;2023-12-22T00:23:25;7.33;;;2.10;;
4839;SDS011;2434;48.486;7.964;2023-12-22T00:25:54;6.63;;;1.97;;
4839;SDS011;2434;48.486;7.964;2023-12-22T00:28:22;7.60;;;2.23;;
4839;SDS011;2434;48.486;7.964;2023-12-22T00:30:50;5.90;;;1.40;;
4839;SDS011;2434;48.486;7.964;2023-12-22T00:33:18;8.73;;;1.50;;
4839;SDS011;2434;48.486;7.964;2023-12-22T00:35:47;10.57;;;2.13;;
4839;SDS011;2434;48.486;7.964;2023-12-22T00:38:15;3.87;;;1.57;;
4839;SDS011;2434;48.486;7.964;2023-12-22T00:40:43;5.70;;;1.60;;
4839;SDS011;2434;48.486;7.964;2023-12-22T00:43:12;12.17;;;2.40;;
4839;SDS011;2434;48.486;7.964;2023-12-22T00:45:40;9.20;;;2.00;;
4839;SDS011;2434;48.486;7.964;2023-12-22T00:48:08;7.50;;;2.20;;
4839;SDS011;2434;48.486;7.964;2023-12-22T00:50:37;10.90;;;2.50;;
4839;SDS011;2434;48.486;7.964;2023-12-22T00:53:04;8.53;;;1.70;;
4839;SDS011;2434;48.486;7.964;2023-12-22T00:55:33;9.27;;;2.00;;
4839;SDS011;2434;48.486;7.964;2023-12-22T00:58:01;9.70;;;2.40;;
4839;SDS011;2434;48.486;7.964;2023-12-22T01:00:30;11.60;;;1.80;;
4839;SDS011;2434;48.486;7.964;2023-12-22T01:02:58;8.93;;;2.50;;
4839;SDS011;2434;48.486;7.964;2023-12-22T01:05:26;10.70;;;2.07;;
4839;SDS011;2434;48.486;7.964;2023-12-22T01:07:54;4.80;;;1.83;;
4839;SDS011;2434;48.486;7.964;2023-12-22T01:10:23;11.30;;;2.10;;
4839;SDS011;2434;48.486;7.964;2023-12-22T01:12:51;10.37;;;1.43;;
4839;SDS011;2434;48.486;7.964;2023-12-22T01:15:19;6.83;;;1.83;;
4839;SDS011;2434;48.486;7.964;2023-12-22T01:17:48;5.87;;;1.73;;
4839;SDS011;2434;48.486;7.964;2023-12-22T01:20:16;6.47;;;2.03;;
4839;SDS011;2434;48.486;7.964;2023-12-22T01:22:45;9.10;;;2.30;;
4839;SDS011;2434;48.486;7.964;2023-12-22T01:25:13;3.67;;;1.80;;
4839;SDS011;2434;48.486;7.964;2023-12-22T01:27:41;8.80;;;2.17;;
4839;SDS011;2434;48.486;7.964;2023-12-22T01:30:09;7.40;;;2.03;;
4839;SDS011;2434;48.486;7.964;2023-12-22T01:32:37;9.23;;;2.73;;
4839;SDS011;2434;48.486;7.964;2023-12-22T01:35:07;9.50;;;2.67;;
4839;SDS011;2434;48.486;7.964;2023-12-22T01:37:36;8.63;;;1.53;;
4839;SDS011;2434;48.486;7.964;2023-12-22T01:40:05;14.43;;;2.77;;
4839;SDS011;2434;48.486;7.964;2023-12-22T01:42:34;10.73;;;2.87;;
4839;SDS011;2434;48.486;7.964;2023-12-22T01:45:02;7.47;;;1.97;;
4839;SDS011;2434;48.486;7.964;2023-12-22T01:47:31;9.77;;;1.93;;
4839;SDS011;2434;48.486;7.964;2023-12-22T01:49:59;9.20;;;2.30;;
4839;SDS011;2434;48.486;7.964;2023-12-22T01:52:30;11.17;;;2.80;;
4839;SDS011;2434;48.486;7.964;2023-12-22T01:54:58;10.50;;;2.60;;
4839;SDS011;2434;48.486;7.964;2023-12-22T01:57:26;7.00;;;1.77;;
4839;SDS011;2434;48.486;7.964;2023-12-22T01:59:56;8.17;;;1.97;;
4839;SDS011;2434;48.486;7.964;2023-12-22T02:02:24;8.33;;;1.97;;
4839;SDS011;2434;48.486;7.964;2023-12-22T02:04:52;6.90;;;1.90;;
4839;SDS011;2434;48.486;7.964;2023-12-22T02:07:21;3.90;;;1.27;;
4839;SDS011;2434;48.486;7.964;2023-12-22T02:09:50;5.07;;;1.53;;
4839;SDS011;2434;48.486;7.964;2023-12-22T02:12:18;6.57;;;1.40;;
4839;SDS011;2434;48.486;7.964;2023-12-22T02:14:46;8.80;;;1.80;;
4839;SDS011;2434;48.486;7.964;2023-12-22T02:17:15;6.23;;;1.57;;
4839;SDS011;2434;48.486;7.964;2023-12-22T02:19:49;4.77;;;1.70;;
4839;SDS011;2434;48.486;7.964;2023-12-22T02:22:18;8.53;;;1.90;;
4839;SDS011;2434;48.486;7.964;2023-12-22T02:24:48;10.40;;;2.67;;
4839;SDS011;2434;48.486;7.964;2023-12-22T02:27:20;7.20;;;2.10;;
4839;SDS011;2434;48.486;7.964;2023-12-22T02:29:54;5.87;;;2.03;;
4839;SDS011;2434;48.486;7.964;2023-12-22T02:32:27;7.00;;;1.90;;
4839;SDS011;2434;48.486;7.964;2023-12-22T02:34:58;13.77;;;2.40;;
4839;SDS011;2434;48.486;7.964;2023-12-22T02:37:30;8.47;;;2.20;;
4839;SDS011;2434;48.486;7.964;2023-12-22T02:40:01;5.13;;;1.63;;
4839;SDS011;2434;48.486;7.964;2023-12-22T02:42:30;6.70;;;1.63;;
4839;SDS011;2434;48.486;7.964;2023-12-22T02:45:00;10.17;;;2.30;;
4839;SDS011;2434;48.486;7.964;2023-12-22T02:47:28;9.10;;;2.40;;
4839;SDS011;2434;48.486;7.964;2023-12-22T02:49:58;9.87;;;2.30;;
4839;SDS011;2434;48.486;7.964;2023-12-22T02:52:27;7.73;;;1.97;;
4839;SDS011;2434;48.486;7.964;2023-12-22T02:54:55;9.97;;;2.23;;
4839;SDS011;2434;48.486;7.964;2023-12-22T02:57:24;10.07;;;2.23;;
4839;SDS011;2434;48.486;7.964;2023-12-22T02:59:52;6.23;;;2.30;;
4839;SDS011;2434;48.486;7.964;2023-12-22T03:02:20;6.40;;;1.50;;
4839;SDS011;2434;48.486;7.964;2023-12-22T03:04:48;9.03;;;2.23;;
4839;SDS011;2434;48.486;7.964;2023-12-22T03:07:16;11.20;;;2.50;;
4839;SDS011;2434;48.486;7.964;2023-12-22T03:09:45;9.90;;;1.93;;
4839;SDS011;2434;48.486;7.964;2023-12-22T03:12:13;6.17;;;1.80;;
4839;SDS011;2434;48.486;7.964;2023-12-22T03:14:42;8.10;;;2.20;;
4839;SDS011;2434;48.486;7.964;2023-12-22T03:17:10;7.77;;;2.07;;
4839;SDS011;2434;48.486;7.964;2023-12-22T03:19:38;7.87;;;2.23;;
4839;SDS011;2434;48.486;7.964;2023-12-22T03:22:07;8.10;;;2.13;;
4839;SDS011;2434;48.486;7.964;2023-12-22T03:24:35;9.40;;;2.07;;
4839;SDS011;2434;48.486;7.964;2023-12-22T03:27:04;12.00;;;2.27;;
4839;SDS011;2434;48.486;7.964;2023-12-22T03:29:33;7.63;;;2.00;;
4839;SDS011;2434;48.486;7.964;2023-12-22T03:32:03;8.37;;;2.17;;
4839;SDS011;2434;48.486;7.964;2023-12-22T03:34:31;9.53;;;2.33;;
4839;SDS011;2434;48.486;7.964;2023-12-22T03:36:59;6.43;;;1.53;;
4839;SDS011;2434;48.486;7.964;2023-12-22T03:39:27;6.63;;;2.13;;
4839;SDS011;2434;48.486;7.964;2023-12-22T03:41:55;14.17;;;1.90;;
4839;SDS011;2434;48.486;7.964;2023-12-22T03:44:23;6.20;;;2.40;;
4839;SDS011;2434;48.486;7.964;2023-12-22T03:46:52;9.93;;;1.50;;
4839;SDS011;2434;48.486;7.964;2023-12-22T03:49:21;9.37;;;2.33;;
4839;SDS011;2434;48.486;7.964;2023-12-22T03:51:49;10.10;;;2.10;;
4839;SDS011;2434;48.486;7.964;2023-12-22T03:54:17;17.07;;;5.27;;
4839;SDS011;2434;48.486;7.964;2023-12-22T03:56:46;17.07;;;2.53;;
4839;SDS011;2434;48.486;7.964;2023-12-22T03:59:14;10.37;;;2.87;;
4839;SDS011;2434;48.486;7.964;2023-12-22T04:01:48;13.50;;;2.43;;
4839;SDS011;2434;48.486;7.964;2023-12-22T04:04:18;12.20;;;2.60;;
4839;SDS011;2434;48.486;7.964;2023-12-22T04:06:50;11.50;;;2.70;;
4839;SDS011;2434;48.486;7.964;2023-12-22T04:09:18;9.43;;;2.10;;
4839;SDS011;2434;48.486;7.964;2023-12-22T04:11:46;10.37;;;2.47;;
4839;SDS011;2434;48.486;7.964;2023-12-22T04:14:14;9.57;;;2.33;;
4839;SDS011;2434;48.486;7.964;2023-12-22T04:16:43;14.93;;;2.97;;
4839;SDS011;2434;48.486;7.964;2023-12-22T04:19:11;7.33;;;1.80;;
4839;SDS011;2434;48.486;7.964;2023-12-22T04:21:39;11.90;;;2.70;;
4839;SDS011;2434;48.486;7.964;2023-12-22T04:24:08;10.33;;;2.77;;
4839;SDS011;2434;48.486;7.964;2023-12-22T04:26:36;10.10;;;2.93;;
4839;SDS011;2434;48.486;7.964;2023-12-22T04:29:05;9.73;;;2.90;;
4839;SDS011;2434;48.486;7.964;2023-12-22T04:31:33;14.33;;;2.93;;
4839;SDS011;2434;48.486;7.964;2023-12-22T04:34:01;15.37;;;3.30;;
4839;SDS011;2434;48.486;7.964;2023-12-22T04:36:29;12.83;;;2.60;;
4839;SDS011;2434;48.486;7.964;2023-12-22T04:38:57;8.70;;;2.47;;
4839;SDS011;2434;48.486;7.964;2023-12-22T04:41:26;6.97;;;1.97;;
4839;SDS011;2434;48.486;7.964;2023-12-22T04:43:54;8.63;;;2.23;;
4839;SDS011;2434;48.486;7.964;2023-12-22T04:46:22;15.97;;;3.23;;
4839;SDS011;2434;48.486;7.964;2023-12-22T04:48:50;16.43;;;2.37;;
4839;SDS011;2434;48.486;7.964;2023-12-22T04:51:18;13.87;;;2.60;;
4839;SDS011;2434;48.486;7.964;2023-12-22T04:53:46;11.70;;;2.90;;
4839;SDS011;2434;48.486;7.964;2023-12-22T04:56:14;11.57;;;2.33;;
4839;SDS011;2434;48.486;7.964;2023-12-22T04:58:43;13.43;;;2.87;;
4839;SDS011;2434;48.486;7.964;2023-12-22T05:01:11;10.60;;;2.50;;
4839;SDS011;2434;48.486;7.964;2023-12-22T05:03:40;11.87;;;2.40;;
4839;SDS011;2434;48.486;7.964;2023-12-22T05:06:08;11.73;;;2.70;;
4839;SDS011;2434;48.486;7.964;2023-12-22T05:08:36;7.47;;;2.43;;
4839;SDS011;2434;48.486;7.964;2023-12-22T05:11:04;7.83;;;1.80;;
4839;SDS011;2434;48.486;7.964;2023-12-22T05:13:32;10.30;;;2.83;;
4839;SDS011;2434;48.486;7.964;2023-12-22T05:16:02;11.47;;;2.90;;
4839;SDS011;2434;48.486;7.964;2023-12-22T05:18:31;9.47;;;2.67;;
4839;SDS011;2434;48.486;7.964;2023-12-22T05:21:00;13.27;;;2.50;;
4839;SDS011;2434;48.486;7.964;2023-12-22T05:23:28;14.60;;;2.90;;
4839;SDS011;2434;48.486;7.964;2023-12-22T05:25:56;15.23;;;2.63;;
4839;SDS011;2434;48.486;7.964;2023-12-22T05:28:24;12.87;;;3.00;;
4839;SDS011;2434;48.486;7.964;2023-12-22T05:30:52;16.50;;;3.33;;
4839;SDS011;2434;48.486;7.964;2023-12-22T05:33:21;10.43;;;2.50;;
4839;SDS011;2434;48.486;7.964;2023-12-22T05:35:49;15.97;;;2.90;;
4839;SDS011;2434;48.486;7.964;2023-12-22T05:38:17;14.00;;;4.67;;
4839;SDS011;2434;48.486;7.964;2023-12-22T05:40:45;12.00;;;2.67;;
4839;SDS011;2434;48.486;7.964;2023-12-22T05:43:14;14.90;;;2.67;;
4839;SDS011;2434;48.486;7.964;2023-12-22T05:45:42;8.40;;;2.30;;
4839;SDS011;2434;48.486;7.964;2023-12-22T05:48:10;14.60;;;2.83;;
4839;SDS011;2434;48.486;7.964;2023-12-22T05:50:40;12.03;;;2.90;;
4839;SDS011;2434;48.486;7.964;2023-12-22T05:53:08;7.50;;;2.33;;
4839;SDS011;2434;48.486;7.964;2023-12-22T05:55:38;7.10;;;2.10;;
4839;SDS011;2434;48.486;7.964;2023-12-22T05:58:06;13.07;;;2.90;;
4839;SDS011;2434;48.486;7.964;2023-12-22T06:00:34;13.23;;;3.03;;
4839;SDS011;2434;48.486;7.964;2023-12-22T06:03:03;12.50;;;3.03;;
4839;SDS011;2434;48.486;7.964;2023-12-22T06:05:32;12.37;;;2.90;;
4839;SDS011;2434;48.486;7.964;2023-12-22T06:08:02;13.00;;;2.80;;
4839;SDS011;2434;48.486;7.964;2023-12-22T06:10:30;17.33;;;3.27;;
4839;SDS011;2434;48.486;7.964;2023-12-22T06:12:58;18.20;;;2.80;;
4839;SDS011;2434;48.486;7.964;2023-12-22T06:15:29;14.83;;;3.50;;
4839;SDS011;2434;48.486;7.964;2023-12-22T06:17:58;14.40;;;3.40;;
4839;SDS011;2434;48.486;7.964;2023-12-22T06:20:26;18.20;;;2.70;;
4839;SDS011;2434;48.486;7.964;2023-12-22T06:22:54;16.80;;;2.70;;
4839;SDS011;2434;48.486;7.964;2023-12-22T06:25:24;16.90;;;3.30;;
4839;SDS011;2434;48.486;7.964;2023-12-22T06:27:52;10.37;;;3.10;;
4839;SDS011;2434;48.486;7.964;2023-12-22T06:30:20;10.53;;;2.23;;
4839;SDS011;2434;48.486;7.964;2023-12-22T06:32:48;12.47;;;2.77;;
4839;SDS011;2434;48.486;7.964;2023-12-22T06:35:17;10.80;;;2.70;;
4839;SDS011;2434;48.486;7.964;2023-12-22T06:37:49;14.60;;;3.60;;
4839;SDS011;2434;48.486;7.964;2023-12-22T06:40:18;10.80;;;2.20;;
4839;SDS011;2434;48.486;7.964;2023-12-22T06:42:48;17.30;;;3.90;;
4839;SDS011;2434;48.486;7.964;2023-12-22T06:45:16;17.40;;;3.57;;
4839;SDS011;2434;48.486;7.964;2023-12-22T06:47:44;11.33;;;3.10;;
4839;SDS011;2434;48.486;7.964;2023-12-22T06:50:12;8.67;;;2.33;;
4839;SDS011;2434;48.486;7.964;2023-12-22T06:52:40;14.10;;;2.67;;
4839;SDS011;2434;48.486;7.964;2023-12-22T06:55:08;10.77;;;2.80;;
4839;SDS011;2434;48.486;7.964;2023-12-22T06:57:38;13.33;;;3.10;;
4839;SDS011;2434;48.486;7.964;2023-12-22T07:00:09;12.97;;;2.83;;
4839;SDS011;2434;48.486;7.964;2023-12-22T07:02:37;14.50;;;3.07;;
4839;SDS011;2434;48.486;7.964;2023-12-22T07:08:05;11.47;;;2.83;;
4839;SDS011;2434;48.486;7.964;2023-12-22T07:10:37;9.73;;;2.83;;
4839;SDS011;2434;48.486;7.964;2023-12-22T07:13:05;11.27;;;3.20;;
4839;SDS011;2434;48.486;7.964;2023-12-22T07:15:35;12.73;;;3.03;;
4839;SDS011;2434;48.486;7.964;2023-12-22T07:18:03;8.83;;;2.10;;
4839;SDS011;2434;48.486;7.964;2023-12-22T07:20:31;11.70;;;3.13;;
4839;SDS011;2434;48.486;7.964;2023-12-22T07:22:59;11.87;;;2.47;;
4839;SDS011;2434;48.486;7.964;2023-12-22T07:25:28;14.57;;;3.30;;
4839;SDS011;2434;48.486;7.964;2023-12-22T07:27:56;14.43;;;3.30;;
4839;SDS011;2434;48.486;7.964;2023-12-22T07:30:24;11.30;;;2.53;;
4839;SDS011;2434;48.486;7.964;2023-12-22T07:32:54;10.13;;;2.20;;
4839;SDS011;2434;48.486;7.964;2023-12-22T07:35:22;15.17;;;3.37;;
4839;SDS011;2434;48.486;7.964;2023-12-22T07:37:50;15.53;;;4.07;;
4839;SDS011;2434;48.486;7.964;2023-12-22T07:40:21;9.67;;;3.30;;
4839;SDS011;2434;48.486;7.964;2023-12-22T07:42:50;9.73;;;2.27;;
4839;SDS011;2434;48.486;7.964;2023-12-22T07:45:18;11.17;;;2.23;;
4839;SDS011;2434;48.486;7.964;2023-12-22T07:47:46;8.73;;;2.57;;
4839;SDS011;2434;48.486;7.964;2023-12-22T07:50:16;12.47;;;2.93;;
4839;SDS011;2434;48.486;7.964;2023-12-22T07:52:45;18.53;;;2.97;;
4839;SDS011;2434;48.486;7.964;2023-12-22T07:55:14;5.60;;;2.60;;
4839;SDS011;2434;48.486;7.964;2023-12-22T07:57:42;10.93;;;2.90;;
4839;SDS011;2434;48.486;7.964;2023-12-22T08:00:12;13.97;;;3.07;;
4839;SDS011;2434;48.486;7.964;2023-12-22T08:02:41;15.20;;;3.37;;
4839;SDS011;2434;48.486;7.964;2023-12-22T08:05:09;13.20;;;2.30;;
4839;SDS011;2434;48.486;7.964;2023-12-22T08:07:38;10.30;;;2.87;;
4839;SDS011;2434;48.486;7.964;2023-12-22T08:10:07;11.43;;;2.67;;
4839;SDS011;2434;48.486;7.964;2023-12-22T08:12:36;16.60;;;3.57;;
4839;SDS011;2434;48.486;7.964;2023-12-22T08:15:04;7.13;;;2.60;;
4839;SDS011;2434;48.486;7.964;2023-12-22T08:17:33;9.50;;;2.33;;
4839;SDS011;2434;48.486;7.964;2023-12-22T08:20:02;10.23;;;2.73;;
4839;SDS011;2434;48.486;7.964;2023-12-22T08:22:41;17.17;;;3.33;;
4839;SDS011;2434;48.486;7.964;2023-12-22T08:25:12;10.03;;;2.80;;
4839;SDS011;2434;48.486;7.964;2023-12-22T08:27:40;11.70;;;3.10;;
4839;SDS011;2434;48.486;7.964;2023-12-22T08:30:09;14.10;;;2.97;;
4839;SDS011;2434;48.486;7.964;2023-12-22T08:32:37;8.93;;;2.20;;
4839;SDS011;2434;48.486;7.964;2023-12-22T08:35:06;10.77;;;3.03;;
4839;SDS011;2434;48.486;7.964;2023-12-22T08:37:35;18.50;;;3.43;;
4839;SDS011;2434;48.486;7.964;2023-12-22T08:40:06;10.60;;;3.20;;
4839;SDS011;2434;48.486;7.964;2023-12-22T08:42:35;11.33;;;3.27;;
4839;SDS011;2434;48.486;7.964;2023-12-22T08:45:03;16.30;;;3.10;;
4839;SDS011;2434;48.486;7.964;2023-12-22T08:47:32;12.33;;;2.93;;
4839;SDS011;2434;48.486;7.964;2023-12-22T08:50:00;17.23;;;3.80;;
4839;SDS011;2434;48.486;7.964;2023-12-22T08:52:31;11.90;;;3.10;;
4839;SDS011;2434;48.486;7.964;2023-12-22T08:55:00;14.17;;;3.73;;
4839;SDS011;2434;48.486;7.964;2023-12-22T08:57:29;9.67;;;2.80;;
4839;SDS011;2434;48.486;7.964;2023-12-22T08:59:58;11.60;;;3.70;;
4839;SDS011;2434;48.486;7.964;2023-12-22T09:02:26;16.03;;;3.70;;
4839;SDS011;2434;48.486;7.964;2023-12-22T09:04:54;15.37;;;3.80;;
4839;SDS011;2434;48.486;7.964;2023-12-22T09:07:22;14.33;;;2.73;;
4839;SDS011;2434;48.486;7.964;2023-12-22T09:09:51;19.83;;;3.93;;
4839;SDS011;2434;48.486;7.964;2023-12-22T09:12:19;11.60;;;2.90;;
4839;SDS011;2434;48.486;7.964;2023-12-22T09:14:49;17.67;;;3.30;;
4839;SDS011;2434;48.486;7.964;2023-12-22T09:17:17;21.07;;;3.63;;
4839;SDS011;2434;48.486;7.964;2023-12-22T09:19:45;18.23;;;3.43;;
4839;SDS011;2434;48.486;7.964;2023-12-22T09:22:13;16.13;;;3.63;;
4839;SDS011;2434;48.486;7.964;2023-12-22T09:24:42;13.43;;;3.40;;
4839;SDS011;2434;48.486;7.964;2023-12-22T09:27:10;11.63;;;3.30;;
4839;SDS011;2434;48.486;7.964;2023-12-22T09:29:38;17.57;;;5.40;;
4839;SDS011;2434;48.486;7.964;2023-12-22T09:32:07;19.63;;;4.10;;
4839;SDS011;2434;48.486;7.964;2023-12-22T09:34:35;13.70;;;4.17;;
4839;SDS011;2434;48.486;7.964;2023-12-22T09:37:05;17.97;;;3.50;;
4839;SDS011;2434;48.486;7.964;2023-12-22T09:39:33;17.27;;;3.80;;
4839;SDS011;2434;48.486;7.964;2023-12-22T09:42:01;13.67;;;3.43;;
4839;SDS011;2434;48.486;7.964;2023-12-22T09:44:31;16.40;;;4.30;;
4839;SDS011;2434;48.486;7.964;2023-12-22T09:47:01;13.40;;;4.03;;
4839;SDS011;2434;48.486;7.964;2023-12-22T09:49:34;18.90;;;3.80;;
4839;SDS011;2434;48.486;7.964;2023-12-22T09:52:02;11.40;;;3.30;;
4839;SDS011;2434;48.486;7.964;2023-12-22T09:54:32;21.03;;;4.13;;
4839;SDS011;2434;48.486;7.964;2023-12-22T09:57:00;18.53;;;4.60;;
4839;SDS011;2434;48.486;7.964;2023-12-22T09:59:47;13.03;;;3.97;;
4839;SDS011;2434;48.486;7.964;2023-12-22T10:02:18;22.53;;;5.67;;
4839;SDS011;2434;48.486;7.964;2023-12-22T10:04:48;15.30;;;3.53;;
4839;SDS011;2434;48.486;7.964;2023-12-22T10:07:17;17.70;;;3.67;;
4839;SDS011;2434;48.486;7.964;2023-12-22T10:09:45;18.47;;;4.00;;
4839;SDS011;2434;48.486;7.964;2023-12-22T10:12:15;18.60;;;4.10;;
4839;SDS011;2434;48.486;7.964;2023-12-22T10:14:44;30.13;;;5.27;;
4839;SDS011;2434;48.486;7.964;2023-12-22T10:17:12;17.10;;;3.83;;
4839;SDS011;2434;48.486;7.964;2023-12-22T10:19:43;16.00;;;3.50;;
4839;SDS011;2434;48.486;7.964;2023-12-22T10:22:12;13.97;;;4.30;;
4839;SDS011;2434;48.486;7.964;2023-12-22T10:24:41;16.30;;;3.43;;
4839;SDS011;2434;48.486;7.964;2023-12-22T10:27:10;20.73;;;4.80;;
4839;SDS011;2434;48.486;7.964;2023-12-22T10:29:39;19.50;;;3.90;;
4839;SDS011;2434;48.486;7.964;2023-12-22T10:32:08;15.40;;;3.60;;
4839;SDS011;2434;48.486;7.964;2023-12-22T10:34:36;11.80;;;2.53;;
4839;SDS011;2434;48.486;7.964;2023-12-22T10:37:04;16.57;;;3.00;;
4839;SDS011;2434;48.486;7.964;2023-12-22T10:39:34;12.73;;;4.50;;
4839;SDS011;2434;48.486;7.964;2023-12-22T10:42:04;13.57;;;3.23;;
4839;SDS011;2434;48.486;7.964;2023-12-22T10:44:32;15.77;;;3.37;;
4839;SDS011;2434;48.486;7.964;2023-12-22T10:47:00;13.53;;;3.47;;
4839;SDS011;2434;48.486;7.964;2023-12-22T10:49:30;17.87;;;3.40;;
4839;SDS011;2434;48.486;7.964;2023-12-22T10:52:00;10.03;;;4.07;;
4839;SDS011;2434;48.486;7.964;2023-12-22T10:54:28;22.10;;;4.20;;
4839;SDS011;2434;48.486;7.964;2023-12-22T10:56:59;13.10;;;3.60;;
4839;SDS011;2434;48.486;7.964;2023-12-22T10:59:27;18.17;;;4.60;;
4839;SDS011;2434;48.486;7.964;2023-12-22T11:01:58;14.50;;;4.90;;
4839;SDS011;2434;48.486;7.964;2023-12-22T11:04:29;15.80;;;4.20;;
4839;SDS011;2434;48.486;7.964;2023-12-22T11:06:59;17.83;;;4.63;;
4839;SDS011;2434;48.486;7.964;2023-12-22T11:09:31;13.00;;;4.30;;
4839;SDS011;2434;48.486;7.964;2023-12-22T11:12:02;16.37;;;3.93;;
4839;SDS011;2434;48.486;7.964;2023-12-22T11:14:32;13.27;;;4.37;;
4839;SDS011;2434;48.486;7.964;2023-12-22T11:17:01;21.33;;;4.87;;
4839;SDS011;2434;48.486;7.964;2023-12-22T11:19:31;15.93;;;4.43;;
4839;SDS011;2434;48.486;7.964;2023-12-22T11:22:02;14.73;;;4.63;;
4839;SDS011;2434;48.486;7.964;2023-12-22T11:24:33;14.70;;;3.73;;
4839;SDS011;2434;48.486;7.964;2023-12-22T11:27:04;21.57;;;4.80;;
4839;SDS011;2434;48.486;7.964;2023-12-22T11:29:34;16.87;;;5.60;;
4839;SDS011;2434;48.486;7.964;2023-12-22T11:32:03;16.13;;;3.43;;
4839;SDS011;2434;48.486;7.964;2023-12-22T11:34:33;16.17;;;3.93;;
4839;SDS011;2434;48.486;7.964;2023-12-22T11:37:05;14.77;;;3.97;;
4839;SDS011;2434;48.486;7.964;2023-12-22T11:39:35;11.03;;;3.73;;
4839;SDS011;2434;48.486;7.964;2023-12-22T11:42:04;13.03;;;3.97;;
4839;SDS011;2434;48.486;7.964;2023-12-22T11:44:34;11.27;;;3.10;;
4839;SDS011;2434;48.486;7.964;2023-12-22T11:47:03;12.07;;;3.20;;
4839;SDS011;2434;48.486;7.964;2023-12-22T11:49:32;9.50;;;2.87;;
4839;SDS011;2434;48.486;7.964;2023-12-22T11:52:11;13.43;;;3.17;;
4839;SDS011;2434;48.486;7.964;2023-12-22T11:54:44;9.00;;;2.43;;
4839;SDS011;2434;48.486;7.964;2023-12-22T11:57:30;12.53;;;3.87;;
4839;SDS011;2434;48.486;7.964;2023-12-22T12:00:00;10.17;;;3.33;;
4839;SDS011;2434;48.486;7.964;2023-12-22T12:02:39;13.17;;;2.90;;
4839;SDS011;2434;48.486;7.964;2023-12-22T12:05:08;17.57;;;3.07;;
4839;SDS011;2434;48.486;7.964;2023-12-22T12:07:41;9.77;;;2.87;;
4839;SDS011;2434;48.486;7.964;2023-12-22T12:13:21;9.53;;;2.60;;
4839;SDS011;2434;48.486;7.964;2023-12-22T12:15:50;7.10;;;2.53;;
4839;SDS011;2434;48.486;7.964;2023-12-22T12:18:21;6.50;;;2.20;;
4839;SDS011;2434;48.486;7.964;2023-12-22T12:20:49;7.33;;;2.10;;
4839;SDS011;2434;48.486;7.964;2023-12-22T12:23:18;7.27;;;2.00;;
4839;SDS011;2434;48.486;7.964;2023-12-22T12:25:46;6.73;;;1.77;;
4839;SDS011;2434;48.486;7.964;2023-12-22T12:28:15;7.60;;;2.03;;
4839;SDS011;2434;48.486;7.964;2023-12-22T12:30:46;4.30;;;1.63;;
4839;SDS011;2434;48.486;7.964;2023-12-22T12:33:15;6.90;;;1.70;;
4839;SDS011;2434;48.486;7.964;2023-12-22T12:35:43;4.30;;;1.57;;
4839;SDS011;2434;48.486;7.964;2023-12-22T12:38:17;5.90;;;2.33;;
4839;SDS011;2434;48.486;7.964;2023-12-22T12:40:49;4.60;;;1.50;;
4839;SDS011;2434;48.486;7.964;2023-12-22T12:43:18;6.17;;;1.53;;
4839;SDS011;2434;48.486;7.964;2023-12-22T12:45:49;5.73;;;1.63;;
4839;SDS011;2434;48.486;7.964;2023-12-22T12:48:19;4.00;;;1.40;;
4839;SDS011;2434;48.486;7.964;2023-12-22T12:50:49;4.73;;;1.30;;
4839;SDS011;2434;48.486;7.964;2023-12-22T12:53:17;2.87;;;1.30;;
4839;SDS011;2434;48.486;7.964;2023-12-22T12:55:45;6.20;;;1.20;;
4839;SDS011;2434;48.486;7.964;2023-12-22T12:58:14;1.77;;;0.80;;
4839;SDS011;2434;48.486;7.964;2023-12-22T13:00:42;5.23;;;1.53;;
4839;SDS011;2434;48.486;7.964;2023-12-22T13:03:11;4.20;;;1.70;;
4839;SDS011;2434;48.486;7.964;2023-12-22T13:05:40;5.17;;;1.47;;
4839;SDS011;2434;48.486;7.964;2023-12-22T13:08:08;2.53;;;1.10;;
4839;SDS011;2434;48.486;7.964;2023-12-22T13:10:37;2.83;;;1.50;;
4839;SDS011;2434;48.486;7.964;2023-12-22T13:13:07;8.53;;;2.10;;
4839;SDS011;2434;48.486;7.964;2023-12-22T13:15:36;4.60;;;1.67;;
4839;SDS011;2434;48.486;7.964;2023-12-22T13:18:07;3.40;;;1.23;;
4839;SDS011;2434;48.486;7.964;2023-12-22T13:20:38;3.57;;;1.20;;
4839;SDS011;2434;48.486;7.964;2023-12-22T13:23:06;3.90;;;1.30;;
4839;SDS011;2434;48.486;7.964;2023-12-22T13:25:37;3.07;;;1.20;;
4839;SDS011;2434;48.486;7.964;2023-12-22T13:28:07;4.60;;;1.43;;
4839;SDS011;2434;48.486;7.964;2023-12-22T13:30:35;7.40;;;1.20;;
4839;SDS011;2434;48.486;7.964;2023-12-22T13:33:07;3.33;;;1.10;;
4839;SDS011;2434;48.486;7.964;2023-12-22T13:35:35;2.90;;;1.20;;
4839;SDS011;2434;48.486;7.964;2023-12-22T13:38:08;2.87;;;1.20;;
4839;SDS011;2434;48.486;7.964;2023-12-22T13:40:38;11.60;;;1.40;;
4839;SDS011;2434;48.486;7.964;2023-12-22T13:43:06;7.10;;;1.10;;
4839;SDS011;2434;48.486;7.964;2023-12-22T13:45:35;2.10;;;1.20;;
4839;SDS011;2434;48.486;7.964;2023-12-22T13:48:03;2.23;;;1.10;;
4839;SDS011;2434;48.486;7.964;2023-12-22T13:50:33;3.43;;;1.30;;
4839;SDS011;2434;48.486;7.964;2023-12-22T13:53:10;3.73;;;1.20;;
4839;SDS011;2434;48.486;7.964;2023-12-22T13:55:38;5.57;;;1.23;;
4839;SDS011;2434;48.486;7.964;2023-12-22T13:58:07;2.23;;;0.83;;
4839;SDS011;2434;48.486;7.964;2023-12-22T14:00:38;2.40;;;1.10;;
4839;SDS011;2434;48.486;7.964;2023-12-22T14:03:09;2.77;;;1.53;;
4839;SDS011;2434;48.486;7.964;2023-12-22T14:05:37;2.53;;;1.20;;
4839;SDS011;2434;48.486;7.964;2023-12-22T14:08:06;4.80;;;1.40;;
4839;SDS011;2434;48.486;7.964;2023-12-22T14:10:35;4.87;;;1.40;;
4839;SDS011;2434;48.486;7.964;2023-12-22T14:13:03;3.90;;;1.77;;
4839;SDS011;2434;48.486;7.964;2023-12-22T14:15:31;4.27;;;1.20;;
4839;SDS011;2434;48.486;7.964;2023-12-22T14:18:09;3.57;;;1.30;;
4839;SDS011;2434;48.486;7.964;2023-12-22T14:20:38;4.80;;;1.33;;
4839;SDS011;2434;48.486;7.964;2023-12-22T14:23:06;2.87;;;1.30;;
4839;SDS011;2434;48.486;7.964;2023-12-22T14:25:41;3.40;;;1.37;;
4839;SDS011;2434;48.486;7.964;2023-12-22T14:28:09;3.93;;;1.53;;
4839;SDS011;2434;48.486;7.964;2023-12-22T14:30:37;3.83;;;1.20;;
4839;SDS011;2434;48.486;7.964;2023-12-22T14:33:05;4.20;;;1.60;;
4839;SDS011;2434;48.486;7.964;2023-12-22T14:35:33;1.67;;;0.70;;
4839;SDS011;2434;48.486;7.964;2023-12-22T14:38:02;2.50;;;1.10;;
4839;SDS011;2434;48.486;7.964;2023-12-22T14:40:31;2.87;;;1.30;;
4839;SDS011;2434;48.486;7.964;2023-12-22T14:43:00;2.37;;;1.20;;
4839;SDS011;2434;48.486;7.964;2023-12-22T14:45:28;2.60;;;1.10;;
4839;SDS011;2434;48.486;7.964;2023-12-22T14:47:57;2.50;;;1.20;;
4839;SDS011;2434;48.486;7.964;2023-12-22T14:50:25;2.10;;;0.90;;
4839;SDS011;2434;48.486;7.964;2023-12-22T14:52:53;2.47;;;1.07;;
4839;SDS011;2434;48.486;7.964;2023-12-22T14:55:21;2.17;;;0.97;;
4839;SDS011;2434;48.486;7.964;2023-12-22T14:57:50;1.50;;;0.70;;
4839;SDS011;2434;48.486;7.964;2023-12-22T15:00:20;2.00;;;0.80;;
4839;SDS011;2434;48.486;7.964;2023-12-22T15:02:48;3.50;;;1.20;;
4839;SDS011;2434;48.486;7.964;2023-12-22T15:05:17;2.10;;;0.97;;
4839;SDS011;2434;48.486;7.964;2023-12-22T15:07:45;2.30;;;1.13;;
4839;SDS011;2434;48.486;7.964;2023-12-22T15:10:14;2.73;;;0.70;;
4839;SDS011;2434;48.486;7.964;2023-12-22T15:12:42;2.00;;;0.83;;
4839;SDS011;2434;48.486;7.964;2023-12-22T15:15:10;2.07;;;0.80;;
4839;SDS011;2434;48.486;7.964;2023-12-22T15:17:40;3.40;;;0.70;;
4839;SDS011;2434;48.486;7.964;2023-12-22T15:20:08;1.60;;;0.70;;
4839;SDS011;2434;48.486;7.964;2023-12-22T15:22:38;2.50;;;0.87;;
4839;SDS011;2434;48.486;7.964;2023-12-22T15:25:07;1.97;;;0.70;;